Time;durP1;ratioP1;P1;durP2;ratioP2;P2;SDS_P1;SDS_P2;PMS_P1;PMS_P2;Temp;Humidity;BMP_temperature;BMP_pressure;BME280_temperature;BME280_humidity;BME280_pressure;Samples;Min_cycle;Max_cycle;Signal;HPM_P1;HPM_P2
2022/01/29 00:01:01;;;;;;;5.88;4.18;;;5.60;78.40;;;;;;5095511;28;20028;-60
2022/01/29 00:03:27;;;;;;;4.28;3.75;;;5.60;78.40;;;;;;5095898;28;20094;-60
2022/01/29 00:05:53;;;;;;;4.63;4.15;;;5.60;78.50;;;;;;5094048;28;20058;-59
2022/01/29 00:08:19;;;;;;;6.07;4.20;;;5.60;78.60;;;;;;5083371;28;20031;-60
2022/01/29 00:10:48;;;;;;;5.00;3.80;;;5.60;78.50;;;;;;5095559;28;20098;-60
2022/01/29 00:13:13;;;;;;;5.30;3.88;;;5.60;78.50;;;;;;5095551;28;20369;-59
2022/01/29 00:15:39;;;;;;;6.32;3.97;;;5.60;78.60;;;;;;5085009;28;20023;-59
2022/01/29 00:18:06;;;;;;;3.85;3.45;;;5.60;78.50;;;;;;5095212;28;20024;-60
2022/01/29 00:20:33;;;;;;;5.75;3.83;;;5.50;78.50;;;;;;5096986;28;20031;-59
2022/01/29 00:22:58;;;;;;;4.93;3.80;;;5.50;78.50;;;;;;5095171;28;20055;-60
2022/01/29 00:25:24;;;;;;;4.20;3.53;;;5.50;78.50;;;;;;5089506;28;20058;-60
2022/01/29 00:27:50;;;;;;;5.28;4.15;;;5.60;78.60;;;;;;5095423;28;20020;-60
2022/01/29 00:30:18;;;;;;;4.55;3.63;;;5.50;78.40;;;;;;5076961;28;20024;-59
2022/01/29 00:32:43;;;;;;;4.05;3.25;;;5.50;78.50;;;;;;5095109;28;20028;-60
2022/01/29 00:35:10;;;;;;;4.18;3.47;;;5.50;78.60;;;;;;5094933;28;20456;-60
2022/01/29 00:37:36;;;;;;;5.28;3.90;;;5.50;78.70;;;;;;5091507;28;20414;-60
2022/01/29 00:40:02;;;;;;;4.50;3.30;;;5.50;78.80;;;;;;5094704;28;20103;-60
2022/01/29 00:42:28;;;;;;;3.70;3.00;;;5.50;78.70;;;;;;5089688;28;20445;-60
2022/01/29 00:44:54;;;;;;;3.92;3.38;;;5.50;78.80;;;;;;5094882;28;20024;-60
2022/01/29 00:47:20;;;;;;;3.30;2.90;;;5.50;78.90;;;;;;5094494;28;20435;-59
2022/01/29 00:49:46;;;;;;;3.67;3.30;;;5.40;78.80;;;;;;5094732;28;20024;-59
2022/01/29 00:52:11;;;;;;;3.20;2.90;;;5.40;78.80;;;;;;5094311;28;20034;-60
2022/01/29 00:54:38;;;;;;;3.85;3.25;;;5.30;78.80;;;;;;5093305;28;20099;-60
2022/01/29 00:57:03;;;;;;;3.95;3.25;;;5.30;79.00;;;;;;5094500;28;20039;-60
2022/01/29 00:59:31;;;;;;;4.22;3.33;;;5.30;79.10;;;;;;5067699;28;20453;-60
2022/01/29 01:01:57;;;;;;;4.07;3.45;;;5.30;79.30;;;;;;5094257;28;20035;-60
2022/01/29 01:04:22;;;;;;;3.65;3.30;;;5.30;79.30;;;;;;5094295;28;20456;-60
2022/01/29 01:06:48;;;;;;;3.85;3.25;;;5.30;79.20;;;;;;5093084;28;20090;-60
2022/01/29 01:09:13;;;;;;;4.70;3.60;;;5.30;79.30;;;;;;5093159;28;20388;-59
2022/01/29 01:11:39;;;;;;;3.28;2.67;;;5.30;79.20;;;;;;5091194;28;20016;-60
2022/01/29 01:14:05;;;;;;;3.60;2.65;;;5.30;79.20;;;;;;5090162;28;20028;-60
2022/01/29 01:16:30;;;;;;;3.70;2.72;;;5.30;79.10;;;;;;5076363;28;20032;-59
2022/01/29 01:18:56;;;;;;;3.33;2.60;;;5.30;79.00;;;;;;5097470;28;20150;-60
2022/01/29 01:21:21;;;;;;;3.92;2.92;;;5.30;79.10;;;;;;5068778;28;20101;-60
2022/01/29 01:23:47;;;;;;;3.42;2.47;;;5.30;79.10;;;;;;5094029;28;20460;-60
2022/01/29 01:26:13;;;;;;;3.22;2.65;;;5.30;79.70;;;;;;5093766;28;20031;-60
2022/01/29 01:28:39;;;;;;;3.33;2.70;;;5.30;79.10;;;;;;5092452;28;20101;-59
2022/01/29 01:31:05;;;;;;;3.00;2.70;;;5.20;79.10;;;;;;5093315;28;20024;-60
2022/01/29 01:33:31;;;;;;;3.17;2.88;;;5.10;79.20;;;;;;5091147;28;20031;-60
2022/01/29 01:36:01;;;;;;;2.85;2.55;;;5.10;79.30;;;;;;5093679;28;20459;-60
2022/01/29 01:38:42;;;;;;;3.03;2.78;;;5.10;80.20;;;;;;5089335;28;20024;-59
2022/01/29 01:41:12;;;;;;;3.08;2.58;;;5.00;79.40;;;;;;5093928;28;20082;-58
2022/01/29 01:43:38;;;;;;;2.70;2.50;;;5.00;79.60;;;;;;5093880;28;20026;-59
2022/01/29 01:46:04;;;;;;;3.78;3.00;;;4.90;79.70;;;;;;5071938;28;20032;-59
2022/01/29 01:48:30;;;;;;;2.90;2.40;;;4.90;80.00;;;;;;5093515;28;20078;-60
2022/01/29 01:50:55;;;;;;;3.53;3.22;;;5.00;79.80;;;;;;5081213;28;20070;-60
2022/01/29 01:53:21;;;;;;;4.50;3.60;;;5.00;80.10;;;;;;5082829;28;20021;-59
2022/01/29 01:55:48;;;;;;;4.32;3.40;;;5.10;80.00;;;;;;5093624;28;20348;-60
2022/01/29 01:58:14;;;;;;;3.90;3.40;;;5.10;79.90;;;;;;5093430;28;20138;-60
2022/01/29 02:00:40;;;;;;;3.28;2.97;;;5.20;79.90;;;;;;5091949;28;20038;-60
2022/01/29 02:03:05;;;;;;;3.97;3.20;;;5.10;79.50;;;;;;5093166;28;20122;-60
2022/01/29 02:05:31;;;;;;;4.68;3.20;;;5.10;79.70;;;;;;5065993;28;20025;-59
2022/01/29 02:07:58;;;;;;;5.43;3.67;;;5.20;79.90;;;;;;5085701;28;20020;-59
2022/01/29 02:10:26;;;;;;;4.93;3.72;;;5.20;79.80;;;;;;5093243;28;20016;-60
2022/01/29 02:12:59;;;;;;;3.95;3.42;;;5.20;79.70;;;;;;5093223;28;20334;-58
2022/01/29 02:15:26;;;;;;;4.00;2.97;;;5.20;79.50;;;;;;5084716;28;20020;-60
2022/01/29 02:17:52;;;;;;;3.50;2.80;;;5.20;79.50;;;;;;5091881;28;20020;-60
2022/01/29 02:20:23;;;;;;;5.00;3.10;;;5.20;79.50;;;;;;5096506;28;20028;-60
2022/01/29 02:22:49;;;;;;;2.88;2.58;;;5.10;79.60;;;;;;5093355;28;20046;-59
2022/01/29 02:25:41;;;;;;;3.00;2.65;;;5.10;79.50;;;;;;5081062;28;20028;-60
2022/01/29 02:28:09;;;;;;;;;;;5.10;79.60;;;;;;5093569;28;20031;-58
2022/01/29 02:30:38;;;;;;;2.85;2.55;;;5.00;79.50;;;;;;5093234;28;20371;-60
2022/01/29 02:33:06;;;;;;;2.38;2.17;;;5.00;79.40;;;;;;5091645;28;20024;-60
2022/01/29 02:35:33;;;;;;;3.92;3.20;;;5.00;79.50;;;;;;5093022;28;20476;-59
2022/01/29 02:37:59;;;;;;;4.18;2.90;;;4.90;79.70;;;;;;5089085;28;20051;-60
2022/01/29 02:40:25;;;;;;;6.03;4.32;;;4.90;79.60;;;;;;5091228;28;20101;-60
2022/01/29 02:42:53;;;;;;;3.45;3.15;;;5.00;79.90;;;;;;5095237;28;20032;-60
2022/01/29 02:45:20;;;;;;;3.92;3.22;;;5.00;79.80;;;;;;5097240;28;20451;-60
2022/01/29 02:47:45;;;;;;;2.67;2.40;;;5.00;79.70;;;;;;5097079;28;20389;-58
2022/01/29 02:50:11;;;;;;;3.55;2.70;;;5.00;79.50;;;;;;5095343;28;20107;-60
2022/01/29 02:52:37;;;;;;;3.20;2.90;;;4.90;79.60;;;;;;5096862;28;20012;-58
2022/01/29 02:55:05;;;;;;;2.35;2.15;;;4.90;80.50;;;;;;5096847;28;20024;-60
2022/01/29 02:57:30;;;;;;;3.10;2.80;;;4.90;79.70;;;;;;5093432;28;20033;-59
2022/01/29 03:00:00;;;;;;;2.45;2.25;;;4.90;80.00;;;;;;5074698;28;20016;-57
2022/01/29 03:02:29;;;;;;;4.10;2.42;;;4.90;79.70;;;;;;5096734;28;20031;-60
2022/01/29 03:04:57;;;;;;;2.83;2.63;;;4.80;79.90;;;;;;5096703;28;20022;-60
2022/01/29 03:07:23;;;;;;;2.20;2.10;;;4.80;80.10;;;;;;5083294;28;20012;-60
2022/01/29 03:09:48;;;;;;;2.83;2.63;;;4.80;80.00;;;;;;5094623;28;20032;-59
2022/01/29 03:12:14;;;;;;;2.78;2.10;;;4.80;80.20;;;;;;5090669;28;20032;-60
2022/01/29 03:14:40;;;;;;;3.15;2.95;;;4.80;80.00;;;;;;5091167;28;20020;-60
2022/01/29 03:17:05;;;;;;;2.65;2.45;;;4.80;80.20;;;;;;5093957;28;20063;-60
2022/01/29 03:19:31;;;;;;;2.50;2.30;;;4.70;80.10;;;;;;5099768;28;20039;-60
2022/01/29 03:21:57;;;;;;;2.80;2.60;;;4.60;80.20;;;;;;5096220;28;20039;-60
2022/01/29 03:24:24;;;;;;;2.47;2.28;;;4.70;80.50;;;;;;5092489;28;20392;-60
2022/01/29 03:26:50;;;;;;;3.00;2.70;;;4.60;80.10;;;;;;5096280;28;20089;-59
2022/01/29 03:29:15;;;;;;;3.20;2.20;;;4.60;80.50;;;;;;5077850;28;20440;-60
2022/01/29 03:31:41;;;;;;;2.50;2.30;;;4.60;80.30;;;;;;5091075;28;20016;-60
2022/01/29 03:34:06;;;;;;;2.40;2.30;;;4.50;80.40;;;;;;5089125;28;20024;-58
2022/01/29 03:36:32;;;;;;;2.60;2.40;;;4.60;80.80;;;;;;5092975;28;20025;-60
2022/01/29 03:38:58;;;;;;;3.13;2.90;;;4.50;80.50;;;;;;5092699;28;20102;-60
2022/01/29 03:41:24;;;;;;;2.50;2.30;;;4.60;80.80;;;;;;5094468;28;20551;-57
2022/01/29 03:43:52;;;;;;;3.22;2.83;;;4.50;80.70;;;;;;5095964;28;20095;-59
2022/01/29 03:46:18;;;;;;;2.40;2.30;;;4.50;81.00;;;;;;5095986;28;20043;-60
2022/01/29 03:48:43;;;;;;;3.10;2.90;;;4.60;81.00;;;;;;5090468;28;20441;-59
2022/01/29 03:51:09;;;;;;;2.17;1.90;;;4.50;80.90;;;;;;5093942;28;20391;-59
2022/01/29 03:53:35;;;;;;;3.20;2.90;;;4.50;80.80;;;;;;5095353;28;20548;-59
2022/01/29 03:56:00;;;;;;;2.40;2.20;;;4.50;81.20;;;;;;5094428;28;20028;-60
2022/01/29 03:58:26;;;;;;;2.22;2.05;;;4.50;80.90;;;;;;5095520;28;20357;-60
2022/01/29 04:00:52;;;;;;;3.08;2.70;;;4.40;81.00;;;;;;5095308;28;20023;-59
2022/01/29 04:03:18;;;;;;;2.65;2.45;;;4.40;81.30;;;;;;5095555;28;20020;-59
2022/01/29 04:05:43;;;;;;;2.53;2.33;;;4.50;81.30;;;;;;5090331;28;20021;-58
2022/01/29 04:08:15;;;;;;;2.40;2.22;;;4.40;81.10;;;;;;5085263;28;20020;-58
2022/01/29 04:10:41;;;;;;;2.28;2.10;;;4.40;81.40;;;;;;5093873;28;20021;-59
2022/01/29 04:13:10;;;;;;;2.35;2.15;;;4.40;81.30;;;;;;5093629;28;20024;-59
2022/01/29 04:15:36;;;;;;;2.03;1.90;;;4.40;81.40;;;;;;5087668;28;20099;-60
2022/01/29 04:18:02;;;;;;;2.80;2.60;;;4.30;81.40;;;;;;5087089;28;20058;-60
2022/01/29 04:20:28;;;;;;;2.40;2.28;;;4.30;81.80;;;;;;5098427;28;20425;-58
2022/01/29 04:22:54;;;;;;;2.70;2.50;;;4.30;81.60;;;;;;5093077;28;20059;-60
2022/01/29 04:25:19;;;;;;;2.33;2.13;;;4.40;81.90;;;;;;5095181;28;20020;-60
2022/01/29 04:27:47;;;;;;;2.17;1.92;;;4.30;81.70;;;;;;5094023;28;20039;-59
2022/01/29 04:30:31;;;;;;;2.42;2.30;;;4.30;81.80;;;;;;5094915;28;20110;-60
2022/01/29 04:33:31;;;;;;;1.80;1.70;;;4.30;82.00;;;;;;5091687;28;20437;-57
2022/01/29 04:35:50;;;;;;;2.70;2.50;;;4.30;81.80;;;;;;5090920;28;20040;-59
2022/01/29 04:38:16;;;;;;;2.90;2.40;;;4.30;82.00;;;;;;5086365;28;20486;-59
2022/01/29 04:40:42;;;;;;;1.98;1.88;;;4.20;81.70;;;;;;5093533;28;20058;-60
2022/01/29 04:43:08;;;;;;;2.90;2.63;;;4.20;81.90;;;;;;5094563;28;20082;-58
2022/01/29 04:45:34;;;;;;;3.22;2.45;;;4.20;82.20;;;;;;5091848;28;20020;-60
2022/01/29 04:48:00;;;;;;;2.10;2.00;;;4.20;82.00;;;;;;5094785;28;20456;-58
2022/01/29 04:50:26;;;;;;;3.40;3.10;;;4.20;82.10;;;;;;5094526;28;20024;-59
2022/01/29 04:52:52;;;;;;;2.50;2.30;;;4.20;82.30;;;;;;5094474;28;20372;-57
2022/01/29 04:55:18;;;;;;;3.00;2.70;;;4.20;82.00;;;;;;5094375;28;20024;-59
2022/01/29 04:57:44;;;;;;;2.38;2.20;;;4.20;82.10;;;;;;5093614;28;20078;-59
2022/01/29 05:00:19;;;;;;;3.20;2.90;;;4.20;81.90;;;;;;5094404;28;20047;-59
2022/01/29 05:02:45;;;;;;;3.17;2.88;;;4.20;82.10;;;;;;5093022;28;20024;-59
2022/01/29 05:05:10;;;;;;;3.13;2.47;;;4.20;81.90;;;;;;5093535;28;20035;-59
2022/01/29 05:07:36;;;;;;;2.90;2.60;;;4.10;81.90;;;;;;5083416;28;20091;-58
2022/01/29 05:10:03;;;;;;;3.20;2.90;;;4.20;81.90;;;;;;5092546;28;20102;-60
2022/01/29 05:12:35;;;;;;;2.50;2.30;;;4.20;81.80;;;;;;5094116;28;20073;-60
2022/01/29 05:15:08;;;;;;;2.55;2.30;;;4.10;81.70;;;;;;5090669;28;20016;-60
2022/01/29 05:28:31;;;;;;;2.88;2.50;;;4.10;82.10;;;;;;5099297;28;20093;-60
2022/01/29 05:30:57;;;;;;;3.03;2.83;;;4.10;82.00;;;;;;5086657;28;20048;-60
2022/01/29 05:33:22;;;;;;;3.08;2.80;;;4.00;82.10;;;;;;5092422;28;20015;-58
2022/01/29 05:35:48;;;;;;;6.43;2.70;;;4.00;82.10;;;;;;5091402;28;20027;-58
2022/01/29 05:38:14;;;;;;;3.92;3.53;;;4.00;82.30;;;;;;5093769;28;20020;-59
2022/01/29 05:40:39;;;;;;;4.22;3.17;;;4.00;83.40;;;;;;5093891;28;20020;-59
2022/01/29 05:43:05;;;;;;;3.53;2.80;;;4.00;82.40;;;;;;5084824;28;20027;-58
2022/01/29 05:45:31;;;;;;;3.75;3.33;;;3.90;82.50;;;;;;5093836;28;20471;-60
2022/01/29 05:47:56;;;;;;;3.92;2.83;;;4.00;82.90;;;;;;5092014;28;20024;-60
2022/01/29 05:50:22;;;;;;;3.65;3.35;;;3.90;82.50;;;;;;5093750;28;20024;-59
2022/01/29 05:52:48;;;;;;;3.90;3.08;;;4.00;82.90;;;;;;5093705;28;20031;-60
2022/01/29 05:55:13;;;;;;;3.42;2.70;;;4.00;82.60;;;;;;5093490;28;20016;-59
2022/01/29 05:57:39;;;;;;;2.88;2.58;;;4.00;82.80;;;;;;5093649;28;20064;-60
2022/01/29 06:00:05;;;;;;;3.40;3.03;;;4.00;82.90;;;;;;5091913;28;20028;-57
2022/01/29 06:02:31;;;;;;;3.05;2.50;;;4.00;83.10;;;;;;5093510;28;20039;-59
2022/01/29 06:04:57;;;;;;;3.00;2.80;;;4.00;82.80;;;;;;5091686;28;20024;-60
2022/01/29 06:07:22;;;;;;;2.28;2.17;;;4.00;83.00;;;;;;5076584;28;20464;-58
2022/01/29 06:09:48;;;;;;;3.72;3.00;;;4.00;82.70;;;;;;5091251;28;20020;-58
2022/01/29 06:12:14;;;;;;;2.50;2.30;;;4.00;82.80;;;;;;5092988;28;20527;-57
2022/01/29 06:14:40;;;;;;;5.15;3.17;;;4.00;82.50;;;;;;5093441;28;20387;-59
2022/01/29 06:17:05;;;;;;;3.35;2.70;;;4.00;82.80;;;;;;5090110;28;20031;-60
2022/01/29 06:19:31;;;;;;;2.90;2.60;;;4.00;82.70;;;;;;5093602;28;20028;-60
2022/01/29 06:21:57;;;;;;;3.88;2.88;;;3.90;82.70;;;;;;5092461;28;20047;-60
2022/01/29 06:24:22;;;;;;;3.85;3.45;;;3.90;82.70;;;;;;5093134;28;20024;-60
2022/01/29 06:26:48;;;;;;;3.42;2.63;;;4.00;82.90;;;;;;5088410;28;20690;-59
2022/01/29 06:29:14;;;;;;;3.20;2.38;;;3.90;82.70;;;;;;5093096;28;20024;-60
2022/01/29 06:31:39;;;;;;;2.88;2.50;;;3.90;82.90;;;;;;5091589;28;20046;-60
2022/01/29 06:34:05;;;;;;;3.10;2.80;;;4.00;83.00;;;;;;5093102;28;20021;-59
2022/01/29 06:36:31;;;;;;;4.10;3.25;;;4.00;83.10;;;;;;5084381;28;20044;-60
2022/01/29 06:38:56;;;;;;;3.75;2.60;;;4.00;82.60;;;;;;5089760;28;20032;-60
2022/01/29 06:41:22;;;;;;;4.03;3.60;;;4.00;82.40;;;;;;5084558;28;20031;-59
2022/01/29 06:43:48;;;;;;;4.70;3.70;;;4.10;82.60;;;;;;5093005;28;20036;-59
2022/01/29 06:46:13;;;;;;;4.50;3.42;;;4.10;82.20;;;;;;5083071;28;20566;-59
2022/01/29 06:48:39;;;;;;;4.57;3.30;;;4.20;82.10;;;;;;5087325;28;20032;-60
2022/01/29 06:51:05;;;;;;;4.80;2.97;;;4.20;82.00;;;;;;5092982;28;20060;-60
2022/01/29 06:53:30;;;;;;;4.55;3.40;;;4.10;82.20;;;;;;5092890;28;20031;-60
2022/01/29 06:55:56;;;;;;;5.80;2.70;;;4.20;82.20;;;;;;5085780;28;20025;-60
2022/01/29 06:58:21;;;;;;;5.13;3.00;;;4.30;81.90;;;;;;5087710;28;20472;-60
2022/01/29 07:00:47;;;;;;;3.53;3.10;;;4.30;82.00;;;;;;5092941;28;20024;-58
2022/01/29 07:03:13;;;;;;;3.65;3.13;;;4.40;81.80;;;;;;5092786;28;20166;-60
2022/01/29 07:05:38;;;;;;;3.50;3.15;;;4.40;81.40;;;;;;5087722;28;20029;-60
2022/01/29 07:08:04;;;;;;;3.25;2.95;;;4.50;81.30;;;;;;5083381;28;20032;-59
2022/01/29 07:10:30;;;;;;;3.10;2.50;;;4.60;80.80;;;;;;5072758;28;20020;-58
2022/01/29 07:12:56;;;;;;;3.05;2.78;;;4.50;80.60;;;;;;5085738;28;20017;-60
2022/01/29 07:15:21;;;;;;;3.60;3.30;;;4.60;80.40;;;;;;5092662;28;20032;-59
2022/01/29 07:17:47;;;;;;;2.75;2.53;;;4.70;80.00;;;;;;5093075;28;20515;-59
2022/01/29 07:20:13;;;;;;;3.65;2.70;;;4.60;79.80;;;;;;5093232;28;20028;-58
2022/01/29 07:22:39;;;;;;;4.20;2.78;;;4.70;79.80;;;;;;5092570;28;20051;-60
2022/01/29 07:25:06;;;;;;;3.13;2.70;;;4.70;79.60;;;;;;5092432;28;20361;-60
2022/01/29 07:27:31;;;;;;;3.35;3.00;;;4.80;79.30;;;;;;5092638;28;20024;-57
2022/01/29 07:29:57;;;;;;;2.70;2.30;;;4.80;78.90;;;;;;5088868;28;20023;-59
2022/01/29 07:32:23;;;;;;;3.00;2.50;;;4.80;78.80;;;;;;5090060;28;20013;-60
2022/01/29 07:34:49;;;;;;;3.05;2.50;;;4.70;78.90;;;;;;5078419;28;20606;-60
2022/01/29 07:37:15;;;;;;;2.92;2.72;;;4.80;78.90;;;;;;5078695;28;20036;-60
2022/01/29 07:39:40;;;;;;;2.85;2.65;;;4.80;78.10;;;;;;5096192;28;20020;-59
2022/01/29 07:42:06;;;;;;;2.65;2.30;;;4.80;77.90;;;;;;5096020;28;20028;-57
2022/01/29 07:44:32;;;;;;;2.80;2.60;;;4.80;78.00;;;;;;5095898;28;20644;-60
2022/01/29 07:46:57;;;;;;;2.28;2.15;;;4.80;78.20;;;;;;5087204;28;20087;-60
2022/01/29 07:49:23;;;;;;;3.53;2.58;;;4.80;77.90;;;;;;5095918;28;20024;-59
2022/01/29 07:51:49;;;;;;;3.15;2.50;;;4.80;77.80;;;;;;5095849;28;20016;-58
2022/01/29 07:54:14;;;;;;;2.72;2.50;;;4.80;77.80;;;;;;5095677;28;20387;-58
2022/01/29 07:56:40;;;;;;;2.67;2.15;;;4.90;77.40;;;;;;5095440;28;20031;-59
2022/01/29 07:59:06;;;;;;;2.10;2.00;;;4.90;77.20;;;;;;5095747;28;20111;-58
2022/01/29 08:01:32;;;;;;;1.83;1.73;;;4.90;77.30;;;;;;5086140;28;20533;-59
2022/01/29 08:03:57;;;;;;;2.35;2.13;;;4.90;76.90;;;;;;5081409;28;20476;-58
2022/01/29 08:06:23;;;;;;;1.73;1.63;;;4.90;76.70;;;;;;5085885;28;20086;-59
2022/01/29 08:08:50;;;;;;;2.10;2.00;;;4.90;76.60;;;;;;5094606;28;20016;-58
2022/01/29 08:11:16;;;;;;;2.42;2.17;;;4.90;76.40;;;;;;5095134;28;20012;-60
2022/01/29 08:13:43;;;;;;;2.60;2.40;;;4.90;76.20;;;;;;5095109;28;20356;-59
2022/01/29 08:16:09;;;;;;;2.33;2.10;;;4.90;76.00;;;;;;5086852;28;20028;-60
2022/01/29 08:18:35;;;;;;;2.38;2.28;;;4.90;76.00;;;;;;5093257;28;20491;-60
2022/01/29 08:21:00;;;;;;;2.45;2.20;;;4.90;76.20;;;;;;5090609;28;20053;-58
2022/01/29 08:23:26;;;;;;;2.20;2.10;;;4.90;76.00;;;;;;5095323;28;20091;-60
2022/01/29 08:25:53;;;;;;;1.98;1.80;;;4.90;75.90;;;;;;5095313;28;20070;-59
2022/01/29 08:28:19;;;;;;;2.58;2.38;;;4.80;76.20;;;;;;5094106;28;20051;-59
2022/01/29 08:30:44;;;;;;;2.60;2.40;;;4.70;76.40;;;;;;5095173;28;20102;-59
2022/01/29 08:33:16;;;;;;;3.22;2.30;;;4.70;76.30;;;;;;5095090;28;20051;-58
2022/01/29 08:35:42;;;;;;;2.03;1.92;;;4.70;76.50;;;;;;5088310;28;20017;-59
2022/01/29 08:38:08;;;;;;;2.63;2.05;;;4.70;76.70;;;;;;5088846;28;20531;-59
2022/01/29 08:40:33;;;;;;;3.00;2.72;;;4.70;76.90;;;;;;5091000;28;20027;-60
2022/01/29 08:42:59;;;;;;;2.50;2.30;;;4.70;77.20;;;;;;5094822;28;20485;-60
2022/01/29 08:45:25;;;;;;;2.58;2.38;;;4.70;77.20;;;;;;5094932;28;20028;-58
2022/01/29 08:47:50;;;;;;;2.80;2.60;;;4.70;77.30;;;;;;5094681;28;20066;-59
2022/01/29 08:50:16;;;;;;;3.20;2.90;;;4.80;77.80;;;;;;5093974;28;20028;-60
2022/01/29 08:52:42;;;;;;;3.33;2.63;;;4.80;77.70;;;;;;5093330;28;20028;-59
2022/01/29 08:55:09;;;;;;;3.95;2.90;;;4.80;77.60;;;;;;5093400;28;20024;-60
2022/01/29 08:57:36;;;;;;;3.40;3.10;;;4.90;78.20;;;;;;5094611;28;20024;-60
2022/01/29 09:00:05;;;;;;;3.03;2.60;;;4.90;78.00;;;;;;5094560;28;20059;-60
2022/01/29 09:02:30;;;;;;;3.80;2.90;;;4.90;77.80;;;;;;5081433;28;20036;-60
2022/01/29 09:04:59;;;;;;;3.78;3.03;;;4.90;77.80;;;;;;5089663;28;20043;-58
2022/01/29 09:07:26;;;;;;;2.88;2.63;;;5.00;78.20;;;;;;5082699;28;20024;-58
2022/01/29 09:09:53;;;;;;;4.90;3.33;;;5.00;77.90;;;;;;5081445;28;20024;-60
2022/01/29 09:12:20;;;;;;;3.53;3.22;;;5.00;78.00;;;;;;5084291;28;20020;-59
2022/01/29 09:14:45;;;;;;;2.95;2.65;;;5.10;77.60;;;;;;5094584;28;20107;-59
2022/01/29 09:17:11;;;;;;;2.97;2.70;;;5.00;77.40;;;;;;5094160;28;20433;-57
2022/01/29 09:19:37;;;;;;;4.18;3.00;;;5.00;77.40;;;;;;5091274;28;20580;-59
2022/01/29 09:22:03;;;;;;;3.20;2.90;;;5.10;76.90;;;;;;5084486;28;20048;-60
2022/01/29 09:24:29;;;;;;;2.67;2.42;;;5.10;76.50;;;;;;5092572;28;20024;-59
2022/01/29 09:26:55;;;;;;;3.00;2.80;;;5.00;76.10;;;;;;5093995;28;20024;-60
2022/01/29 09:29:21;;;;;;;3.58;2.90;;;5.10;76.50;;;;;;5086638;28;20095;-59
2022/01/29 09:31:46;;;;;;;3.97;3.58;;;5.10;76.10;;;;;;5094068;28;20026;-60
2022/01/29 09:34:12;;;;;;;3.20;2.88;;;5.10;76.40;;;;;;5093791;28;20032;-59
2022/01/29 09:36:37;;;;;;;3.47;3.17;;;5.10;76.30;;;;;;5080334;28;20534;-60
2022/01/29 09:39:03;;;;;;;3.40;3.10;;;5.10;76.10;;;;;;5092289;28;20083;-58
2022/01/29 09:41:31;;;;;;;3.35;2.75;;;5.10;75.70;;;;;;5091700;28;20074;-60
2022/01/29 09:43:56;;;;;;;3.30;3.00;;;5.10;75.50;;;;;;5090636;28;20453;-60
2022/01/29 09:46:30;;;;;;;2.33;2.17;;;5.10;75.30;;;;;;5084205;28;20115;-59
2022/01/29 09:48:56;;;;;;;2.97;2.67;;;5.00;75.30;;;;;;5091213;28;20031;-58
2022/01/29 09:51:22;;;;;;;3.50;2.90;;;5.10;75.40;;;;;;5093270;28;20027;-59
2022/01/29 09:53:48;;;;;;;3.53;2.60;;;5.10;74.80;;;;;;5093393;28;20012;-60
2022/01/29 09:56:14;;;;;;;3.97;3.15;;;5.10;75.10;;;;;;5093367;28;20020;-58
2022/01/29 09:58:42;;;;;;;2.47;2.28;;;5.10;74.70;;;;;;5091936;28;20032;-60
2022/01/29 10:01:08;;;;;;;3.33;3.03;;;5.10;74.80;;;;;;5093344;28;20032;-60
2022/01/29 10:03:34;;;;;;;2.60;2.40;;;5.10;74.70;;;;;;5086094;28;20012;-59
2022/01/29 10:06:01;;;;;;;3.20;2.90;;;5.00;74.40;;;;;;5093275;28;20031;-57
2022/01/29 10:08:27;;;;;;;2.58;2.35;;;5.00;74.80;;;;;;5093187;28;20438;-60
2022/01/29 10:10:56;;;;;;;3.03;2.72;;;5.00;74.40;;;;;;5093205;28;20024;-59
2022/01/29 10:13:35;;;;;;;3.70;3.17;;;5.00;74.60;;;;;;5091938;28;20103;-57
2022/01/29 10:16:06;;;;;;;2.60;2.40;;;5.00;74.30;;;;;;5093361;28;20020;-58
2022/01/29 10:18:33;;;;;;;2.50;2.30;;;4.90;74.60;;;;;;5093215;28;20491;-60
2022/01/29 10:21:13;;;;;;;2.30;2.20;;;4.90;74.70;;;;;;5081127;28;20044;-58
2022/01/29 10:23:41;;;;;;;2.80;2.60;;;4.90;74.90;;;;;;5093395;28;20031;-60
2022/01/29 10:26:09;;;;;;;3.47;3.00;;;4.90;75.20;;;;;;5082639;28;20024;-59
2022/01/29 10:28:36;;;;;;;2.60;2.40;;;4.90;75.00;;;;;;5091925;28;20020;-60
2022/01/29 10:31:07;;;;;;;3.15;2.60;;;4.80;74.80;;;;;;5093348;28;20480;-58
2022/01/29 10:33:35;;;;;;;3.90;2.47;;;4.70;75.10;;;;;;5093196;28;20142;-60
2022/01/29 10:36:14;;;;;;;4.88;3.17;;;4.60;75.50;;;;;;5079990;28;20021;-58
2022/01/29 10:38:40;;;;;;;3.22;2.92;;;4.70;75.70;;;;;;5089098;28;20018;-60
2022/01/29 10:41:44;;;;;;;2.92;2.70;;;4.70;75.40;;;;;;5093365;28;20072;-60
2022/01/29 10:44:15;;;;;;;3.78;3.00;;;4.70;75.60;;;;;;5064295;28;20161;-59
2022/01/29 10:46:53;;;;;;;4.90;2.50;;;4.70;75.20;;;;;;5093056;28;20463;-58
2022/01/29 10:49:21;;;;;;;2.50;2.30;;;4.70;75.10;;;;;;5082373;28;20460;-59
2022/01/29 10:52:07;;;;;;;2.50;2.30;;;4.70;75.40;;;;;;5093084;28;20102;-60
2022/01/29 10:54:35;;;;;;;2.80;2.60;;;4.70;75.00;;;;;;5080450;28;20103;-59
2022/01/29 10:57:09;;;;;;;3.33;2.30;;;4.70;74.90;;;;;;5092915;28;20483;-58
2022/01/29 10:59:49;;;;;;;3.35;3.08;;;4.60;74.50;;;;;;5088026;28;20043;-59
2022/01/29 11:02:17;;;;;;;3.70;3.25;;;4.70;74.90;;;;;;5083343;28;20028;-59
2022/01/29 11:04:43;;;;;;;3.78;3.47;;;4.60;74.80;;;;;;5095873;28;20035;-59
2022/01/29 11:07:19;;;;;;;3.67;3.28;;;4.60;74.60;;;;;;5096844;28;20020;-59
2022/01/29 11:09:47;;;;;;;3.85;3.03;;;4.70;74.40;;;;;;5096382;28;20035;-57
2022/01/29 11:12:22;;;;;;;3.28;2.63;;;4.70;74.30;;;;;;5092431;28;20094;-58
2022/01/29 11:14:50;;;;;;;2.78;2.25;;;4.70;74.30;;;;;;5092090;28;20028;-59
2022/01/29 11:17:18;;;;;;;2.65;2.22;;;4.60;74.40;;;;;;5096403;28;20103;-59
2022/01/29 11:19:44;;;;;;;2.20;2.00;;;4.60;74.40;;;;;;5091592;28;20024;-59
2022/01/29 11:22:11;;;;;;;3.00;2.70;;;4.60;74.50;;;;;;5090750;28;20044;-59
2022/01/29 11:24:40;;;;;;;3.17;2.88;;;4.70;74.40;;;;;;5095713;28;20035;-59
2022/01/29 11:27:25;;;;;;;2.63;2.42;;;4.70;73.80;;;;;;5093379;28;20107;-58
2022/01/29 11:30:01;;;;;;;3.45;2.97;;;4.70;74.00;;;;;;5086231;28;20336;-59
2022/01/29 11:32:33;;;;;;;3.28;2.97;;;4.70;73.60;;;;;;5096375;28;20024;-59
2022/01/29 11:35:01;;;;;;;2.80;2.47;;;4.70;73.40;;;;;;5096050;28;20024;-59
2022/01/29 11:37:39;;;;;;;2.63;2.42;;;4.70;73.20;;;;;;5096195;28;20352;-59
2022/01/29 11:40:34;;;;;;;2.58;2.38;;;4.60;73.40;;;;;;5096051;28;20028;-57
2022/01/29 11:43:06;;;;;;;3.67;2.80;;;4.60;73.30;;;;;;5077021;28;20131;-59
2022/01/29 11:45:44;;;;;;;3.92;3.05;;;4.50;73.40;;;;;;5094821;28;20022;-59
2022/01/29 11:48:33;;;;;;;3.30;2.67;;;4.60;73.30;;;;;;5085552;28;20081;-59
2022/01/29 11:51:02;;;;;;;4.90;3.47;;;4.50;73.80;;;;;;5092527;28;20364;-59
2022/01/29 11:53:45;;;;;;;4.38;3.97;;;4.50;73.30;;;;;;5092979;28;20027;-58
2022/01/29 11:56:35;;;;;;;4.00;3.05;;;4.60;73.10;;;;;;5091596;28;20027;-59
2022/01/29 11:59:19;;;;;;;4.00;2.72;;;4.50;72.90;;;;;;5095639;28;20067;-59
2022/01/29 12:01:50;;;;;;;3.67;3.20;;;4.50;73.40;;;;;;5077232;28;20020;-59
2022/01/29 12:04:16;;;;;;;5.53;2.87;;;4.50;73.30;;;;;;5088478;28;20032;-59
2022/01/29 12:07:08;;;;;;;4.20;2.80;;;4.50;73.10;;;;;;5095743;28;20728;-59
2022/01/29 12:09:47;;;;;;;3.78;2.95;;;4.50;72.90;;;;;;5085056;28;20024;-58
2022/01/29 12:12:20;;;;;;;3.83;3.10;;;4.50;73.30;;;;;;5095443;28;20059;-59
2022/01/29 12:14:49;;;;;;;6.40;3.80;;;4.50;73.00;;;;;;5095450;28;20414;-58
2022/01/29 12:17:34;;;;;;;3.58;3.10;;;4.50;72.60;;;;;;5095228;28;20031;-59
2022/01/29 12:20:02;;;;;;;6.50;5.50;;;4.50;72.60;;;;;;5088436;28;20060;-58
2022/01/29 12:22:31;;;;;;;3.70;3.03;;;4.50;72.80;;;;;;5093463;28;20153;-59
2022/01/29 12:24:59;;;;;;;4.43;3.72;;;4.50;72.70;;;;;;5095519;28;20031;-58
2022/01/29 12:27:47;;;;;;;4.43;2.67;;;4.50;72.90;;;;;;5093911;28;20123;-59
2022/01/29 12:30:40;;;;;;;3.08;2.70;;;4.50;72.50;;;;;;5095122;28;20479;-59
2022/01/29 12:33:12;;;;;;;4.20;3.55;;;4.40;72.70;;;;;;5095207;28;20023;-59
2022/01/29 12:35:42;;;;;;;;;;;4.50;73.10;;;;;;5090812;28;20103;-58
2022/01/29 12:38:10;;;;;;;4.20;2.72;;;4.40;72.60;;;;;;5085935;28;19908;-59
2022/01/29 12:40:40;;;;;;;3.90;3.40;;;4.40;73.10;;;;;;5095113;28;20525;-59
2022/01/29 12:43:20;;;;;;;3.42;2.80;;;4.40;72.80;;;;;;5094851;28;20020;-59
2022/01/29 12:45:47;;;;;;;3.97;2.88;;;4.40;72.70;;;;;;5094900;28;20020;-57
2022/01/29 12:48:13;;;;;;;3.42;3.08;;;4.40;73.00;;;;;;5094635;28;20031;-59
2022/01/29 12:50:41;;;;;;;3.35;2.47;;;4.40;72.50;;;;;;5090667;28;20028;-59
2022/01/29 12:53:17;;;;;;;4.53;3.25;;;4.40;72.40;;;;;;5088965;28;20118;-59
2022/01/29 12:55:43;;;;;;;4.05;3.10;;;4.30;72.90;;;;;;5093727;28;20379;-59
2022/01/29 12:58:09;;;;;;;4.57;3.22;;;4.40;72.90;;;;;;5093260;28;20047;-58
2022/01/29 13:00:36;;;;;;;4.45;3.20;;;4.40;72.80;;;;;;5078371;28;20507;-59
2022/01/29 13:03:09;;;;;;;6.53;4.03;;;4.30;72.90;;;;;;5094228;28;20035;-58
2022/01/29 13:05:42;;;;;;;3.83;3.33;;;4.40;73.00;;;;;;5076355;28;20027;-59
2022/01/29 13:08:10;;;;;;;3.33;3.00;;;4.40;72.70;;;;;;5083775;28;20019;-57
2022/01/29 13:10:35;;;;;;;4.43;3.72;;;4.30;72.80;;;;;;5082071;28;20016;-59
2022/01/29 13:13:01;;;;;;;4.55;3.75;;;4.40;73.00;;;;;;5094137;28;20483;-58